createdAt,value
2019-05-16T00:03:18.541Z,5.2
2019-05-16T00:08:17.811Z,5.1
2019-05-16T00:13:18.447Z,5
2019-05-16T00:18:17.793Z,5
2019-05-16T00:23:18.206Z,4.9
2019-05-16T00:28:17.990Z,4.8
2019-05-16T00:33:18.528Z,4.7
2019-05-16T00:38:18.395Z,4.6
2019-05-16T00:43:18.569Z,4.5
2019-05-16T00:48:19.263Z,4.5
2019-05-16T00:53:18.989Z,4.4
2019-05-16T00:58:20.313Z,4.3
2019-05-16T01:03:21.079Z,4.3
2019-05-16T01:08:19.749Z,4.3
2019-05-16T01:13:19.606Z,4.3
2019-05-16T01:18:19.552Z,4.2
2019-05-16T01:23:19.728Z,4.2
2019-05-16T01:28:19.591Z,4.1
2019-05-16T01:33:19.601Z,4
2019-05-16T01:38:19.631Z,4
2019-05-16T01:43:19.812Z,4
2019-05-16T01:48:19.617Z,4
2019-05-16T01:53:19.620Z,4.1
2019-05-16T01:58:20.346Z,4.1
2019-05-16T02:03:19.569Z,4.1
2019-05-16T02:08:19.620Z,4.1
2019-05-16T02:13:19.624Z,4.1
2019-05-16T02:18:19.622Z,4.1
2019-05-16T02:23:19.669Z,4.1
2019-05-16T02:28:23.050Z,4.1
2019-05-16T02:33:21.217Z,4.1
2019-05-16T02:38:21.075Z,4.1
2019-05-16T02:43:21.754Z,4.1
2019-05-16T02:48:21.245Z,4.2
2019-05-16T02:53:22.194Z,4.2
2019-05-16T02:58:23.202Z,4.2
2019-05-16T03:03:21.254Z,4.2
2019-05-16T03:08:21.108Z,4.2
2019-05-16T03:13:21.947Z,4.3
2019-05-16T03:18:21.374Z,4.3
2019-05-16T03:23:21.734Z,4.3
2019-05-16T03:28:22.099Z,4.3
2019-05-16T03:33:30.395Z,4.4
2019-05-16T03:38:21.370Z,4.4
2019-05-16T03:43:21.719Z,4.4
2019-05-16T03:48:21.414Z,4.4
2019-05-16T03:53:21.469Z,4.4
2019-05-16T03:58:22.403Z,4.5
2019-05-16T04:09:22.459Z,4.6
2019-05-16T04:14:26.822Z,4.6
2019-05-16T04:19:26.816Z,4.7
2019-05-16T04:24:31.407Z,4.7
2019-05-16T04:29:27.178Z,4.8
2019-05-16T04:34:27.602Z,4.9
2019-05-16T04:39:27.286Z,4.9
2019-05-16T04:44:30.931Z,5
2019-05-16T04:49:40.953Z,5
2019-05-16T04:54:41.469Z,5.1
2019-05-16T04:59:37.525Z,5.2
2019-05-16T05:04:37.487Z,5.3
2019-05-16T05:09:40.568Z,5.5
2019-05-16T05:14:37.999Z,5.7
2019-05-16T05:20:10.404Z,5.9
2019-05-16T05:25:07.583Z,5.9
2019-05-16T05:30:07.589Z,6
2019-05-16T05:35:10.638Z,6.1
2019-05-16T05:40:10.642Z,6.1
2019-05-16T05:45:11.039Z,6.2
2019-05-16T05:50:11.094Z,6.3
2019-05-16T05:55:10.624Z,6.4
2019-05-16T06:00:10.155Z,6.5
2019-05-16T06:05:10.738Z,6.7
2019-05-16T06:10:10.705Z,6.8
2019-05-16T06:15:12.705Z,7
2019-05-16T06:20:14.372Z,7.1
2019-05-16T06:25:13.039Z,7.2
2019-05-16T06:30:11.302Z,7.3
2019-05-16T06:35:10.694Z,7.5
2019-05-16T06:40:11.146Z,7.6
2019-05-16T06:45:10.758Z,7.8
2019-05-16T06:50:11.317Z,8
2019-05-16T06:55:10.987Z,8.2
2019-05-16T11:20:57.977Z,15.4
2019-05-16T11:40:02.028Z,15.9
2019-05-16T11:45:08.568Z,16.3
2019-05-16T11:50:17.522Z,16.2
2019-05-16T11:55:16.272Z,16.3
2019-05-16T12:00:20.612Z,16.5
2019-05-16T14:10:53.088Z,18.2
2019-05-16T14:15:53.732Z,18.1
2019-05-16T14:30:57.181Z,17.9
2019-05-16T14:35:58.449Z,17.9
2019-05-16T14:41:03.034Z,17.3
2019-05-16T14:51:20.925Z,16.7
2019-05-16T14:56:22.685Z,16.5
2019-05-16T15:01:26.733Z,16.2
2019-05-16T15:06:37.477Z,15.7
2019-05-16T15:11:47.098Z,15.7
2019-05-16T15:16:57.415Z,15.7
2019-05-16T15:23:28.357Z,15.5
2019-05-16T15:28:51.397Z,15.3
2019-05-16T15:33:57.221Z,15.3
2019-05-16T15:39:54.241Z,15.6
2019-05-16T15:45:53.092Z,15.6
2019-05-16T15:51:12.062Z,15.8
2019-05-16T15:56:37.241Z,15.7
2019-05-16T16:01:41.891Z,15.5
2019-05-16T16:06:48.084Z,15.1
2019-05-16T16:12:30.180Z,15
2019-05-16T16:17:57.367Z,14.6
2019-05-16T16:27:34.447Z,14.4
2019-05-16T16:32:40.365Z,14.4
2019-05-16T16:44:20.037Z,14.5
2019-05-16T17:05:38.286Z,13.9
2019-05-16T17:17:11.628Z,13.4
2019-05-16T17:22:17.336Z,13.1
2019-05-16T17:27:14.340Z,13.3
2019-05-16T17:32:36.235Z,13.3
2019-05-16T18:10:27.930Z,13
2019-05-16T18:42:04.453Z,12.7
2019-05-16T18:47:11.440Z,12.7
2019-05-16T18:52:09.062Z,12.6
2019-05-16T18:57:09.046Z,12.5
2019-05-16T19:02:15.300Z,12.3
2019-05-16T19:07:47.496Z,12.3
2019-05-16T19:12:59.733Z,12.3
2019-05-16T19:17:58.636Z,12.3
2019-05-16T19:22:59.025Z,12.2
2019-05-16T19:33:26.343Z,12.1
2019-05-16T19:38:29.248Z,12
2019-05-16T19:43:29.364Z,11.9
2019-05-16T19:48:28.765Z,11.9
2019-05-16T19:53:28.971Z,11.8
2019-05-16T19:58:31.071Z,11.7
2019-05-16T20:03:29.642Z,11.6
2019-05-16T20:08:29.686Z,11.6
2019-05-16T20:13:38.090Z,11.6
2019-05-16T20:18:38.169Z,11.4
2019-05-16T20:23:39.736Z,11.4
2019-05-16T20:28:39.638Z,11.3
2019-05-16T20:33:39.864Z,11.3
2019-05-16T20:38:40.234Z,11.2
2019-05-16T20:43:41.064Z,11.2
2019-05-16T20:48:41.433Z,11.1
2019-05-16T20:53:42.002Z,11
2019-05-16T20:59:12.309Z,10.9
2019-05-16T21:04:34.550Z,10.9
2019-05-16T21:10:01.093Z,10.8
2019-05-16T21:20:35.423Z,10.7
2019-05-16T21:25:41.003Z,10.6
2019-05-16T21:30:41.451Z,10.6
2019-05-16T21:35:41.852Z,10.5
2019-05-16T21:40:42.975Z,10.5
2019-05-16T21:45:47.378Z,10.4
2019-05-16T21:50:46.415Z,10.4
2019-05-16T21:55:47.170Z,10.3
2019-05-16T22:00:47.402Z,10.3
2019-05-16T22:05:46.571Z,10.2
2019-05-16T22:10:46.659Z,10.2
2019-05-16T22:15:46.462Z,10.1
2019-05-16T22:20:47.099Z,10.1
2019-05-16T22:25:49.151Z,10
2019-05-16T22:30:46.934Z,10
2019-05-16T22:36:17.149Z,9.9
2019-05-16T22:42:27.108Z,9.9
2019-05-16T22:47:27.998Z,9.8
2019-05-16T22:52:26.971Z,9.7
2019-05-16T22:57:28.242Z,9.6
2019-05-16T23:02:27.394Z,9.6
2019-05-16T23:07:27.517Z,9.6
2019-05-16T23:12:26.938Z,9.6
2019-05-16T23:17:37.465Z,9.5
2019-05-16T23:22:42.056Z,9.5
2019-05-16T23:27:51.022Z,9.5
2019-05-16T23:32:56.961Z,9.4
2019-05-16T23:38:19.191Z,9.3
2019-05-16T23:43:13.781Z,9.3
2019-05-16T23:48:19.512Z,9.3
2019-05-16T23:53:13.501Z,9.2
2019-05-16T23:58:13.465Z,9.1
